Time;durP1;ratioP1;P1;durP2;ratioP2;P2;SDS_P1;SDS_P2;PMS_P1;PMS_P2;Temp;Humidity;BMP_temperature;BMP_pressure;BME280_temperature;BME280_humidity;BME280_pressure;Samples;Min_cycle;Max_cycle;Signal;HPM_P1;HPM_P2
2023/03/26 00:00:11;;;;;;;;;;;10.30;99.90;;;;;;5074719;28;19939;-88
2023/03/26 00:02:38;;;;;;;;;;;10.30;99.90;;;;;;5068030;28;20410;-85
2023/03/26 00:05:04;;;;;;;;;;;10.20;99.90;;;;;;5091961;28;19908;-87
2023/03/26 00:07:30;;;;;;;;;;;10.10;99.90;;;;;;5107830;28;19961;-87
2023/03/26 00:09:57;;;;;;;;;;;9.90;99.90;;;;;;5073944;28;19912;-86
2023/03/26 00:12:23;;;;;;;;;;;9.70;99.90;;;;;;5106665;28;19942;-86
2023/03/26 00:14:50;;;;;;;;;;;9.60;99.90;;;;;;5106839;28;19919;-87
2023/03/26 00:17:16;;;;;;;;;;;9.40;99.90;;;;;;5074047;28;19912;-85
2023/03/26 00:19:42;;;;;;;;;;;9.20;99.90;;;;;;5092426;28;20306;-85
2023/03/26 00:22:10;;;;;;;;;;;9.10;99.90;;;;;;5092121;28;19919;-89
2023/03/26 00:24:36;;;;;;;;;;;9.10;99.90;;;;;;5073474;28;20375;-85
2023/03/26 00:27:01;;;;;;;;;;;9.10;99.90;;;;;;5091836;28;19916;-86
2023/03/26 00:29:27;;;;;;;;;;;9.00;99.90;;;;;;5073174;28;20371;-87
2023/03/26 00:31:53;;;;;;;;;;;9.00;99.90;;;;;;5090064;28;20307;-86
2023/03/26 00:34:19;;;;;;;;;;;9.00;99.90;;;;;;5091266;28;19916;-88
2023/03/26 00:36:45;;;;;;;;;;;9.00;99.90;;;;;;5073718;28;19908;-85
2023/03/26 00:39:11;;;;;;;;;;;9.00;99.90;;;;;;5107395;28;19915;-90
2023/03/26 00:41:41;;;;;;;;;;;9.10;99.90;;;;;;5091505;28;19913;-90
2023/03/26 00:44:07;;;;;;;;;;;9.10;99.90;;;;;;5091241;28;20115;-87
2023/03/26 00:46:33;;;;;;;;;;;9.10;99.90;;;;;;5106246;28;20302;-84
2023/03/26 00:48:59;;;;;;;;;;;9.10;99.90;;;;;;5090686;28;20383;-85
2023/03/26 00:51:25;;;;;;;;;;;9.10;99.90;;;;;;5091221;28;20411;-88
2023/03/26 00:53:51;;;;;;;;;;;9.10;99.90;;;;;;5072950;28;20360;-87
2023/03/26 00:56:17;;;;;;;;;;;9.10;99.90;;;;;;5091713;28;20395;-89
2023/03/26 00:58:42;;;;;;;;;;;9.10;99.90;;;;;;5091319;28;19908;-91
2023/03/26 01:01:09;;;;;;;;;;;9.10;99.90;;;;;;5091519;28;20067;-85
2023/03/26 01:03:36;;;;;;;;;;;9.00;99.90;;;;;;5089980;28;19912;-90
2023/03/26 01:06:06;;;;;;;;;;;9.00;99.90;;;;;;5072456;28;19912;-86
2023/03/26 01:08:32;;;;;;;;;;;8.90;99.90;;;;;;5107382;28;19908;-87
2023/03/26 01:11:06;;;;;;;;;;;8.90;99.90;;;;;;5072934;28;20276;-85
2023/03/26 01:13:36;;;;;;;;;;;8.90;99.90;;;;;;5072299;28;19917;-84
2023/03/26 01:16:02;;;;;;;;;;;8.90;99.90;;;;;;5071803;28;19945;-85
2023/03/26 01:18:32;;;;;;;;;;;8.80;99.90;;;;;;5071246;28;19945;-86
2023/03/26 01:21:04;;;;;;;;;;;8.90;99.90;;;;;;5088585;28;19920;-90
2023/03/26 01:23:40;;;;;;;;;;;8.90;99.90;;;;;;5089790;28;19923;-85
2023/03/26 01:26:23;;;;;;;;;;;8.80;99.90;;;;;;5089408;28;19916;-86
2023/03/26 01:28:52;;;;;;;;;;;8.90;99.90;;;;;;5107314;28;19912;-89
2023/03/26 01:31:28;;;;;;;;;;;9.00;99.90;;;;;;5091525;28;19923;-90
2023/03/26 01:34:16;;;;;;;;;;;9.00;99.90;;;;;;5072151;28;20386;-86
2023/03/26 01:37:08;;;;;;;;;;;9.00;99.90;;;;;;5088212;28;19912;-88
2023/03/26 01:39:41;;;;;;;;;;;9.00;99.90;;;;;;5070829;28;19912;-86
2023/03/26 01:42:10;;;;;;;;;;;9.00;99.90;;;;;;5105859;28;19919;-86
2023/03/26 01:44:58;;;;;;;;;;;9.00;99.90;;;;;;5090437;28;19915;-89
2023/03/26 01:47:24;;;;;;;;;;;9.00;99.90;;;;;;5072023;28;19919;-90
2023/03/26 01:49:50;;;;;;;;;;;9.00;99.90;;;;;;5091129;28;19934;-87
2023/03/26 01:52:19;;;;;;;;;;;8.90;99.90;;;;;;5105157;28;20019;-90
2023/03/26 01:54:45;;;;;;;;;;;9.00;99.90;;;;;;5090509;28;20302;-91
2023/03/26 01:57:28;;;;;;;;;;;9.00;99.90;;;;;;5090106;28;19927;-90
2023/03/26 01:59:54;;;;;;;;;;;9.10;99.90;;;;;;5090451;28;19915;-86
2023/03/26 02:02:26;;;;;;;;;;;9.10;99.90;;;;;;5091179;28;19908;-88
2023/03/26 02:05:15;;;;;;;;;;;9.10;99.90;;;;;;5072794;28;19912;-87
2023/03/26 02:07:43;;;;;;;;;;;9.10;99.90;;;;;;5081716;28;19916;-87
2023/03/26 02:10:24;;;;;;;;;;;9.10;99.90;;;;;;5089446;28;20394;-90
2023/03/26 02:12:49;;;;;;;;;;;9.10;99.90;;;;;;5090598;28;20295;-86
2023/03/26 02:15:16;;;;;;;;;;;9.00;99.90;;;;;;5072044;28;19908;-86
2023/03/26 02:17:41;;;;;;;;;;;8.90;99.90;;;;;;5070660;28;19912;-91
2023/03/26 02:20:10;;;;;;;;;;;8.90;99.90;;;;;;5072288;28;19930;-86
2023/03/26 02:22:39;;;;;;;;;;;8.80;99.90;;;;;;5105733;28;19908;-91
2023/03/26 02:25:09;;;;;;;;;;;8.70;99.90;;;;;;5089927;28;20011;-86
2023/03/26 02:27:35;;;;;;;;;;;8.70;99.90;;;;;;5089513;28;19916;-90
2023/03/26 02:30:01;;;;;;;;;;;8.60;99.90;;;;;;5109398;28;19938;-87
2023/03/26 02:32:26;;;;;;;;;;;8.60;99.90;;;;;;5075150;28;19920;-86
2023/03/26 02:34:52;;;;;;;;;;;8.50;99.90;;;;;;5094951;28;19953;-88
2023/03/26 02:37:17;;;;;;;;;;;8.60;99.90;;;;;;5094141;28;19908;-91
2023/03/26 02:39:43;;;;;;;;;;;8.50;99.90;;;;;;5075988;28;20262;-86
2023/03/26 02:42:09;;;;;;;;;;;8.60;99.90;;;;;;5075025;28;19923;-87
2023/03/26 02:44:34;;;;;;;;;;;8.50;99.90;;;;;;5094070;28;19908;-91
2023/03/26 02:47:00;;;;;;;;;;;8.60;99.90;;;;;;5109282;28;19957;-86
2023/03/26 02:49:26;;;;;;;;;;;8.50;99.90;;;;;;5109613;28;19908;-87
2023/03/26 02:51:55;;;;;;;;;;;8.50;99.90;;;;;;5109539;28;19912;-90
2023/03/26 02:54:21;;;;;;;;;;;8.50;99.90;;;;;;5094271;28;19919;-86
2023/03/26 02:56:46;;;;;;;;;;;8.50;99.90;;;;;;5093440;28;20290;-92
2023/03/26 02:59:12;;;;;;;;;;;8.50;99.90;;;;;;5075569;28;19919;-92
2023/03/26 03:01:41;;;;;;;;;;;8.50;99.90;;;;;;5093812;28;19916;-91
2023/03/26 03:04:08;;;;;;;;;;;8.50;99.90;;;;;;5109411;28;19908;-91
2023/03/26 03:06:34;;;;;;;;;;;8.50;99.90;;;;;;5099400;28;19967;-90
2023/03/26 03:09:03;;;;;;;;;;;8.50;99.90;;;;;;5106712;28;19912;-88
2023/03/26 03:11:28;;;;;;;;;;;8.80;99.90;;;;;;5075190;28;19908;-90
2023/03/26 03:13:54;;;;;;;;;;;8.50;99.90;;;;;;5094079;28;19927;-89
2023/03/26 03:16:19;;;;;;;;;;;8.50;99.90;;;;;;5093527;28;20378;-91
2023/03/26 03:18:46;;;;;;;;;;;8.60;99.90;;;;;;5093517;28;20669;-86
2023/03/26 03:21:11;;;;;;;;;;;8.60;99.90;;;;;;5092761;28;19912;-87
2023/03/26 03:23:37;;;;;;;;;;;8.60;99.90;;;;;;5093478;28;20014;-87
2023/03/26 03:26:03;;;;;;;;;;;8.70;99.90;;;;;;5085157;28;19939;-88
2023/03/26 03:28:29;;;;;;;;;;;8.60;99.90;;;;;;5082597;28;19912;-89
2023/03/26 03:30:56;;;;;;;;;;;8.60;99.90;;;;;;5085344;28;19913;-89
2023/03/26 03:33:22;;;;;;;;;;;8.70;99.90;;;;;;5098880;28;20277;-88
2023/03/26 03:35:48;;;;;;;;;;;8.60;99.90;;;;;;5100626;28;19928;-90
2023/03/26 03:38:15;;;;;;;;;;;8.70;99.90;;;;;;5086244;28;19919;-89
2023/03/26 03:40:40;;;;;;;;;;;8.70;99.90;;;;;;5091420;28;19951;-87
2023/03/26 03:43:06;;;;;;;;;;;8.70;99.90;;;;;;5082581;28;19943;-85
2023/03/26 03:45:31;;;;;;;;;;;8.90;99.90;;;;;;5096623;28;19920;-87
2023/03/26 03:47:57;;;;;;;;;;;8.70;99.90;;;;;;5094620;28;19962;-88
2023/03/26 03:50:23;;;;;;;;;;;8.70;99.90;;;;;;5075073;28;19912;-88
2023/03/26 03:52:49;;;;;;;;;;;8.70;99.90;;;;;;5063291;28;19927;-86
2023/03/26 03:55:15;;;;;;;;;;;8.80;99.90;;;;;;5085545;28;19916;-88
2023/03/26 03:57:40;;;;;;;;;;;8.70;99.90;;;;;;5099921;28;20283;-87
2023/03/26 04:00:10;;;;;;;;;;;8.70;99.90;;;;;;5084066;28;19956;-86
2023/03/26 04:02:36;;;;;;;;;;;8.80;99.90;;;;;;5065003;28;19970;-87
2023/03/26 04:05:03;;;;;;;;;;;8.80;99.90;;;;;;5102926;27;19991;-89
2023/03/26 04:07:32;;;;;;;;;;;8.80;99.90;;;;;;5081333;28;19912;-87
2023/03/26 04:10:04;;;;;;;;;;;8.90;99.90;;;;;;5067963;28;19919;-87
2023/03/26 04:12:30;;;;;;;;;;;8.90;99.90;;;;;;5101401;28;20405;-87
2023/03/26 04:14:56;;;;;;;;;;;8.90;99.90;;;;;;5103256;28;19920;-86
2023/03/26 04:17:22;;;;;;;;;;;8.90;99.90;;;;;;5084873;28;19912;-88
2023/03/26 04:19:49;;;;;;;;;;;8.90;99.90;;;;;;5085934;28;19965;-89
2023/03/26 04:22:17;;;;;;;;;;;8.90;99.90;;;;;;5082507;28;19920;-86
2023/03/26 04:24:43;;;;;;;;;;;8.90;99.90;;;;;;5095695;28;19938;-87
2023/03/26 04:27:10;;;;;;;;;;;8.90;99.90;;;;;;5082125;28;19973;-86
2023/03/26 04:29:41;;;;;;;;;;;8.80;99.90;;;;;;5084934;28;20464;-86
2023/03/26 04:32:11;;;;;;;;;;;8.90;99.90;;;;;;5105666;27;19920;-87
2023/03/26 04:34:37;;;;;;;;;;;8.80;99.90;;;;;;5105769;28;19960;-86
2023/03/26 04:37:03;;;;;;;;;;;8.90;99.90;;;;;;5076240;28;19951;-87
2023/03/26 04:39:32;;;;;;;;;;;8.70;99.90;;;;;;5082057;28;19998;-88
2023/03/26 04:41:59;;;;;;;;;;;8.60;99.90;;;;;;5092250;28;19912;-87
2023/03/26 04:44:24;;;;;;;;;;;8.60;99.90;;;;;;5073094;28;19908;-88
2023/03/26 04:46:52;;;;;;;;;;;8.50;99.90;;;;;;5073248;28;19918;-90
2023/03/26 04:49:18;;;;;;;;;;;8.50;99.90;;;;;;5091711;28;19908;-89
2023/03/26 04:51:45;;;;;;;;;;;8.50;99.90;;;;;;5090778;28;19908;-90
2023/03/26 04:54:12;;;;;;;;;;;8.50;99.90;;;;;;5091706;28;19908;-89
2023/03/26 04:56:44;;;;;;;;;;;8.50;99.90;;;;;;5090296;28;19912;-88
2023/03/26 04:59:12;;;;;;;;;;;8.50;99.90;;;;;;5082494;28;19916;-89
2023/03/26 05:01:39;;;;;;;;;;;8.50;99.90;;;;;;5079471;28;20383;-90
2023/03/26 05:04:04;;;;;;;;;;;8.60;99.90;;;;;;5082161;28;20403;-88
2023/03/26 05:06:33;;;;;;;;;;;8.50;99.90;;;;;;5081491;28;19938;-88
2023/03/26 05:08:59;;;;;;;;;;;8.40;99.90;;;;;;5068537;28;19918;-90
2023/03/26 05:11:24;;;;;;;;;;;8.40;99.90;;;;;;5081388;28;19912;-89
2023/03/26 05:13:50;;;;;;;;;;;8.50;99.90;;;;;;5066701;28;19965;-89
2023/03/26 05:16:15;;;;;;;;;;;8.50;99.90;;;;;;5087512;28;19912;-90
2023/03/26 05:18:41;;;;;;;;;;;8.50;99.90;;;;;;5090396;28;19912;-87
2023/03/26 05:21:07;;;;;;;;;;;8.50;99.90;;;;;;5072326;28;20299;-89
2023/03/26 05:23:32;;;;;;;;;;;8.40;99.90;;;;;;5090429;28;19919;-86
2023/03/26 05:25:58;;;;;;;;;;;8.40;99.90;;;;;;5070946;28;19916;-86
2023/03/26 05:28:25;;;;;;;;;;;8.40;99.90;;;;;;5104619;28;20008;-85
2023/03/26 05:30:51;;;;;;;;;;;8.40;99.90;;;;;;5104128;28;19915;-90
2023/03/26 05:33:18;;;;;;;;;;;8.40;99.90;;;;;;5078511;28;20376;-88
2023/03/26 05:35:43;;;;;;;;;;;8.40;99.90;;;;;;5084325;28;19920;-86
2023/03/26 05:38:09;;;;;;;;;;;8.30;99.90;;;;;;5089948;28;19931;-86
2023/03/26 05:40:35;;;;;;;;;;;8.30;99.90;;;;;;5071484;28;20287;-89
2023/03/26 05:43:01;;;;;;;;;;;8.20;99.90;;;;;;5080609;28;19912;-85
2023/03/26 05:45:26;;;;;;;;;;;8.10;99.90;;;;;;5095261;28;19912;-88
2023/03/26 05:47:53;;;;;;;;;;;8.10;99.90;;;;;;5072133;28;20390;-88
2023/03/26 05:50:19;;;;;;;;;;;8.00;99.90;;;;;;5085426;28;20386;-87
2023/03/26 05:52:45;;;;;;;;;;;8.00;99.90;;;;;;5081063;28;19974;-88
2023/03/26 05:55:10;;;;;;;;;;;8.00;99.90;;;;;;5070109;28;19920;-86
2023/03/26 05:57:36;;;;;;;;;;;7.90;99.90;;;;;;5086043;28;19958;-89
2023/03/26 06:00:03;;;;;;;;;;;7.80;99.90;;;;;;5078226;28;20432;-87
2023/03/26 06:02:29;;;;;;;;;;;7.80;99.90;;;;;;5086093;28;19919;-86
2023/03/26 06:04:55;;;;;;;;;;;7.80;99.90;;;;;;5075449;28;20322;-89
2023/03/26 06:07:21;;;;;;;;;;;7.80;99.90;;;;;;5080100;28;20010;-87
2023/03/26 06:09:46;;;;;;;;;;;8.30;99.90;;;;;;5088147;28;20014;-87
2023/03/26 06:12:12;;;;;;;;;;;7.80;99.90;;;;;;5106258;27;19916;-88
2023/03/26 06:14:41;;;;;;;;;;;7.90;99.90;;;;;;5113900;28;21544;-88
2023/03/26 06:17:07;;;;;;;;;;;7.70;99.90;;;;;;5100776;28;20393;-88
2023/03/26 06:19:32;;;;;;;;;;;7.70;99.90;;;;;;5090572;28;19912;-86
2023/03/26 06:21:58;;;;;;;;;;;7.70;99.90;;;;;;5082097;28;20306;-91
2023/03/26 06:24:24;;;;;;;;;;;7.60;99.90;;;;;;5096852;28;20018;-89
2023/03/26 06:26:51;;;;;;;;;;;7.60;99.90;;;;;;5082749;28;19920;-89
2023/03/26 06:29:16;;;;;;;;;;;7.70;99.90;;;;;;5088274;28;19927;-87
2023/03/26 06:31:42;;;;;;;;;;;7.70;99.90;;;;;;5089480;28;19924;-86
2023/03/26 06:34:07;;;;;;;;;;;7.60;99.90;;;;;;5088599;28;19916;-88
2023/03/26 06:36:33;;;;;;;;;;;7.70;99.90;;;;;;5090453;28;19944;-86
2023/03/26 06:38:59;;;;;;;;;;;7.70;99.90;;;;;;5071460;28;19912;-87
2023/03/26 06:41:24;;;;;;;;;;;7.70;99.90;;;;;;5090075;28;20079;-86
2023/03/26 06:43:50;;;;;;;;;;;7.80;99.90;;;;;;5089208;28;19982;-87
2023/03/26 06:46:15;;;;;;;;;;;7.90;99.90;;;;;;5069538;28;19920;-92
2023/03/26 06:48:41;;;;;;;;;;;7.90;99.90;;;;;;5093807;28;19974;-88
2023/03/26 06:51:07;;;;;;;;;;;8.00;99.90;;;;;;5090155;28;19916;-89
2023/03/26 06:53:32;;;;;;;;;;;8.10;99.90;;;;;;5073060;28;19984;-91
2023/03/26 06:55:58;;;;;;;;;;;8.10;99.90;;;;;;5089147;28;19951;-87
2023/03/26 06:58:24;;;;;;;;;;;8.20;99.90;;;;;;5088932;28;19947;-89
2023/03/26 07:00:52;;;;;;;;;;;8.20;99.90;;;;;;5070548;28;19967;-92
2023/03/26 07:03:17;;;;;;;;;;;8.20;99.90;;;;;;5089537;28;19912;-91
2023/03/26 07:05:43;;;;;;;;;;;8.20;99.90;;;;;;5089965;28;19908;-87
2023/03/26 07:08:08;;;;;;;;;;;8.20;99.90;;;;;;5089117;28;19916;-86
2023/03/26 07:10:34;;;;;;;;;;;8.30;99.90;;;;;;5090182;28;19967;-89
2023/03/26 07:12:59;;;;;;;;;;;8.40;99.90;;;;;;5089018;28;20386;-91
2023/03/26 07:15:26;;;;;;;;;;;8.50;99.90;;;;;;5110882;27;19911;-87
2023/03/26 07:17:52;;;;;;;;;;;8.70;99.90;;;;;;5097281;28;20000;-92
2023/03/26 07:20:17;;;;;;;;;;;8.80;99.90;;;;;;5109085;28;19952;-92
2023/03/26 07:22:43;;;;;;;;;;;9.10;99.90;;;;;;5078702;28;19908;-90
2023/03/26 07:25:09;;;;;;;;;;;9.20;99.90;;;;;;5092247;28;20276;-88
2023/03/26 07:27:34;;;;;;;;;;;9.20;99.90;;;;;;5093837;28;19916;-91
2023/03/26 07:30:04;;;;;;;;;;;9.10;99.90;;;;;;5093302;28;19912;-88
2023/03/26 07:32:48;;;;;;;;;;;9.20;99.90;;;;;;5100152;27;19927;-88
2023/03/26 07:35:14;;;;;;;;;;;9.00;99.90;;;;;;5083990;28;20007;-90
2023/03/26 07:37:39;;;;;;;;;;;8.90;99.90;;;;;;5105389;28;20012;-88
2023/03/26 07:40:34;;;;;;;;;;;9.00;99.90;;;;;;5095627;28;20081;-89
2023/03/26 07:43:14;;;;;;;;;;;9.10;99.90;;;;;;5089845;28;19916;-90
2023/03/26 07:45:41;;;;;;;;;;;9.10;99.90;;;;;;5081064;28;19919;-89
2023/03/26 07:48:14;;;;;;;;;;;9.10;99.90;;;;;;5090774;28;20402;-90
2023/03/26 07:50:40;;;;;;;;;;;9.20;99.90;;;;;;5089035;28;20150;-89
2023/03/26 07:53:06;;;;;;;;;;;9.30;99.90;;;;;;5107925;28;20374;-91
2023/03/26 07:55:32;;;;;;;;;;;9.30;99.90;;;;;;5074027;28;20050;-88
2023/03/26 07:58:16;;;;;;;;;;;9.40;99.90;;;;;;5074575;28;19915;-91
2023/03/26 08:00:51;;;;;;;;;;;9.40;99.90;;;;;;5106570;28;19919;-89
2023/03/26 08:03:24;;;;;;;;;;;9.50;99.90;;;;;;5054186;28;19908;-89
2023/03/26 08:06:04;;;;;;;;;;;9.60;99.90;;;;;;5100831;28;19965;-89
2023/03/26 08:08:32;;;;;;;;;;;9.60;99.90;;;;;;5071760;28;20010;-89
2023/03/26 08:11:04;;;;;;;;;;;9.60;99.90;;;;;;5091741;28;19908;-89
2023/03/26 08:13:37;;;;;;;;;;;9.40;99.90;;;;;;5073341;28;19980;-87
2023/03/26 08:16:09;;;;;;;;;;;8.90;99.90;;;;;;5107254;28;19976;-87
2023/03/26 08:18:49;;;;;;;;;;;8.40;99.90;;;;;;5074381;28;19918;-85
2023/03/26 08:21:22;;;;;;;;;;;7.80;99.90;;;;;;5107359;28;19915;-85
2023/03/26 08:23:50;;;;;;;;;;;7.50;99.90;;;;;;5106920;28;19953;-85
2023/03/26 08:26:35;;;;;;;;;;;7.20;99.90;;;;;;5106521;28;20375;-85
2023/03/26 08:29:06;;;;;;;;;;;7.20;99.90;;;;;;5091463;28;19916;-88
2023/03/26 08:31:33;;;;;;;;;;;7.10;99.90;;;;;;5091697;28;19914;-88
2023/03/26 08:33:59;;;;;;;;;;;7.10;99.90;;;;;;5091337;28;20083;-85
2023/03/26 08:36:25;;;;;;;;;;;7.40;99.90;;;;;;5091720;28;19912;-88
2023/03/26 08:38:51;;;;;;;;;;;7.60;99.90;;;;;;5072190;28;20000;-86
2023/03/26 08:41:35;;;;;;;;;;;7.10;99.90;;;;;;5106208;28;20291;-88
2023/03/26 08:44:27;;;;;;;;;;;7.00;99.90;;;;;;5073147;28;19912;-88
2023/03/26 08:46:53;;;;;;;;;;;7.20;99.90;;;;;;5072487;28;20388;-88
2023/03/26 08:49:37;;;;;;;;;;;7.90;99.90;;;;;;5091619;28;19948;-89
2023/03/26 08:52:11;;;;;;;;;;;7.70;99.90;;;;;;5072923;28;19915;-89
2023/03/26 08:54:46;;;;;;;;;;;7.90;99.90;;;;;;5091248;28;19958;-90
2023/03/26 08:57:11;;;;;;;;;;;8.00;99.90;;;;;;5089453;28;19958;-84
2023/03/26 08:59:40;;;;;;;;;;;8.00;99.90;;;;;;5091172;28;19947;-86
2023/03/26 09:02:24;;;;;;;;;;;8.00;99.90;;;;;;5073059;28;20275;-84
2023/03/26 09:04:59;;;;;;;;;;;7.90;99.90;;;;;;5090403;28;20280;-88
2023/03/26 09:07:43;;;;;;;;;;;8.00;99.90;;;;;;5090545;28;19990;-90
2023/03/26 09:10:11;;;;;;;;;;;8.10;99.90;;;;;;5090376;28;19908;-84
2023/03/26 09:12:55;;;;;;;;;;;8.00;99.90;;;;;;5091216;28;19920;-89
2023/03/26 09:15:59;;;;;;;;;;;7.90;99.90;;;;;;5090492;28;19961;-84
2023/03/26 09:18:24;;;;;;;;;;;7.80;99.90;;;;;;5028333;28;19916;-87
2023/03/26 09:20:59;;;;;;;;;;;7.90;99.90;;;;;;5028436;28;19913;-88
2023/03/26 09:23:25;;;;;;;;;;;7.70;99.90;;;;;;5060194;28;20374;-87
2023/03/26 09:26:09;;;;;;;;;;;7.60;99.90;;;;;;5072017;28;19916;-87
2023/03/26 09:28:52;;;;;;;;;;;7.50;99.90;;;;;;5090810;28;19912;-85
2023/03/26 09:31:33;;;;;;;;;;;7.40;99.90;;;;;;5090025;28;20401;-87
2023/03/26 09:34:10;;;;;;;;;;;7.40;99.90;;;;;;5087584;28;20269;-85
2023/03/26 09:36:45;;;;;;;;;;;7.20;99.90;;;;;;5104588;28;19999;-84
2023/03/26 09:39:31;;;;;;;;;;;7.20;99.90;;;;;;5088965;28;19912;-85
2023/03/26 09:42:07;;;;;;;;;;;7.10;99.90;;;;;;5090226;28;19927;-85
2023/03/26 09:44:48;;;;;;;;;;;7.10;99.90;;;;;;5089462;28;20388;-84
2023/03/26 09:47:18;;;;;;;;;;;7.00;99.90;;;;;;5105509;28;20301;-85
2023/03/26 09:50:02;;;;;;;;;;;7.00;99.90;;;;;;5087812;28;19912;-87
2023/03/26 09:52:42;;;;;;;;;;;7.10;99.90;;;;;;5089537;28;19923;-88
2023/03/26 09:55:20;;;;;;;;;;;7.10;99.90;;;;;;5106476;28;19988;-87
2023/03/26 09:58:01;;;;;;;;;;;7.30;99.90;;;;;;5070924;28;20496;-89
2023/03/26 10:00:28;;;;;;;;;;;7.30;99.90;;;;;;5073610;28;19918;-86
2023/03/26 10:03:03;;;;;;;;;;;7.50;99.90;;;;;;5079438;28;19919;-85
2023/03/26 10:05:48;;;;;;;;;;;7.30;99.90;;;;;;5089396;28;20192;-88
2023/03/26 10:08:32;;;;;;;;;;;7.30;99.90;;;;;;5071276;28;19912;-85
2023/03/26 10:11:01;;;;;;;;;;;7.40;99.90;;;;;;5089530;28;19908;-90
2023/03/26 10:13:36;;;;;;;;;;;7.40;99.90;;;;;;5070118;28;20383;-89
2023/03/26 10:16:01;;;;;;;;;;;7.50;99.90;;;;;;5071176;28;19943;-88
2023/03/26 10:18:47;;;;;;;;;;;7.80;99.90;;;;;;5089043;28;19959;-84
2023/03/26 10:21:15;;;;;;;;;;;7.60;99.90;;;;;;5089295;28;19912;-84
2023/03/26 10:23:56;;;;;;;;;;;7.60;99.90;;;;;;5089074;28;19912;-84
2023/03/26 10:26:35;;;;;;;;;;;7.50;99.90;;;;;;5084683;28;19930;-89
2023/03/26 10:29:25;;;;;;;;;;;7.70;99.90;;;;;;5068041;28;20007;-86
2023/03/26 10:32:09;;;;;;;;;;;8.10;99.90;;;;;;5089574;28;19912;-90
2023/03/26 10:34:43;;;;;;;;;;;8.40;99.90;;;;;;5073038;28;19916;-90
2023/03/26 10:37:12;;;;;;;;;;;8.40;99.90;;;;;;5071630;28;19923;-86
2023/03/26 10:39:53;;;;;;;;;;;8.50;99.90;;;;;;5090024;28;19918;-87
2023/03/26 10:42:39;;;;;;;;;;;8.60;99.90;;;;;;5070783;28;20387;-88
2023/03/26 10:45:40;;;;;;;;;;;8.80;99.90;;;;;;5071443;28;19912;-87
2023/03/26 10:48:20;;;;;;;;;;;9.10;99.90;;;;;;5034308;28;19916;-87
2023/03/26 10:50:51;;;;;;;;;;;9.40;99.90;;;;;;5088141;28;20348;-87
2023/03/26 10:53:16;;;;;;;;;;;9.60;99.90;;;;;;5093415;28;19998;-87
2023/03/26 10:55:45;;;;;;;;;;;9.50;99.90;;;;;;5109211;28;19955;-87
2023/03/26 10:58:28;;;;;;;;;;;9.60;99.90;;;;;;5106741;28;19958;-87
2023/03/26 11:01:01;;;;;;;;;;;9.60;99.90;;;;;;5058002;28;19971;-87
2023/03/26 11:03:26;;;;;;;;;;;9.70;99.90;;;;;;5073623;28;20372;-88
2023/03/26 11:06:07;;;;;;;;;;;9.70;99.90;;;;;;5073414;28;19915;-90
2023/03/26 11:08:37;;;;;;;;;;;9.40;99.90;;;;;;5089020;28;19919;-89
2023/03/26 11:11:05;;;;;;;;;;;9.70;99.90;;;;;;5097642;28;19912;-90
2023/03/26 11:13:40;;;;;;;;;;;10.00;99.90;;;;;;5092171;28;19920;-89
2023/03/26 11:16:15;;;;;;;;;;;10.10;99.90;;;;;;5076149;28;19915;-89
2023/03/26 11:18:52;;;;;;;;;;;10.30;99.90;;;;;;5092811;28;20598;-88
2023/03/26 11:21:44;;;;;;;;;;;10.40;99.90;;;;;;5075267;28;19912;-89
2023/03/26 11:24:09;;;;;;;;;;;10.40;99.90;;;;;;5088718;28;19919;-87
2023/03/26 11:26:47;;;;;;;;;;;10.20;99.90;;;;;;5091808;28;20019;-87
2023/03/26 11:29:19;;;;;;;;;;;10.00;99.90;;;;;;5091908;28;19912;-86
2023/03/26 11:31:47;;;;;;;;;;;10.10;99.90;;;;;;5091423;28;19908;-86
2023/03/26 11:34:17;;;;;;;;;;;10.10;99.90;;;;;;5091717;28;19920;-86
2023/03/26 11:36:49;;;;;;;;;;;9.90;99.90;;;;;;5071961;28;19966;-87
2023/03/26 11:39:20;;;;;;;;;;;10.00;99.90;;;;;;5071596;28;20003;-89
2023/03/26 11:41:46;;;;;;;;;;;9.80;99.90;;;;;;5072371;28;19954;-88
2023/03/26 11:44:30;;;;;;;;;;;9.80;99.90;;;;;;5066995;28;20537;-88
2023/03/26 11:46:57;;;;;;;;;;;9.80;99.90;;;;;;5086809;28;20398;-88
2023/03/26 11:49:25;;;;;;;;;;;9.90;99.90;;;;;;5091717;28;19999;-89
2023/03/26 11:51:50;;;;;;;;;;;9.90;99.90;;;;;;5078843;28;19919;-88
2023/03/26 11:54:16;;;;;;;;;;;10.40;99.90;;;;;;5083548;28;19920;-86
2023/03/26 11:56:54;;;;;;;;;;;10.30;99.90;;;;;;5106450;28;20386;-87
2023/03/26 11:59:22;;;;;;;;;;;10.30;99.90;;;;;;5072833;28;19931;-87
2023/03/26 12:01:55;;;;;;;;;;;10.30;99.90;;;;;;5104902;28;19912;-86
2023/03/26 12:04:26;;;;;;;;;;;10.30;99.90;;;;;;5091207;28;19916;-87
2023/03/26 12:06:55;;;;;;;;;;;10.40;99.90;;;;;;5091525;28;19908;-87
2023/03/26 12:09:21;;;;;;;;;;;10.50;99.90;;;;;;5073967;28;20381;-87
2023/03/26 12:11:46;;;;;;;;;;;10.50;99.90;;;;;;5073337;28;19989;-88
2023/03/26 12:14:16;;;;;;;;;;;10.50;99.90;;;;;;5072854;28;19916;-88
2023/03/26 12:17:00;;;;;;;;;;;10.50;99.90;;;;;;5107355;28;20003;-88
2023/03/26 12:19:27;;;;;;;;;;;10.70;99.90;;;;;;5073960;28;19908;-87
2023/03/26 12:21:53;;;;;;;;;;;10.30;99.90;;;;;;5091591;28;19908;-87
2023/03/26 12:24:34;;;;;;;;;;;10.20;99.90;;;;;;5107515;28;19909;-88
2023/03/26 12:27:19;;;;;;;;;;;10.20;99.90;;;;;;5107434;28;19924;-88
2023/03/26 12:29:49;;;;;;;;;;;10.50;99.90;;;;;;5090068;28;20004;-87
2023/03/26 12:32:15;;;;;;;;;;;10.90;99.90;;;;;;5107390;28;19930;-88
2023/03/26 12:34:40;;;;;;;;;;;11.10;99.90;;;;;;5105547;28;20367;-88
2023/03/26 12:37:07;;;;;;;;;;;11.20;99.90;;;;;;5092532;28;19909;-88
2023/03/26 12:39:40;;;;;;;;;;;11.20;99.90;;;;;;5091533;28;20295;-87
2023/03/26 12:42:22;;;;;;;;;;;11.30;99.90;;;;;;5092309;28;19931;-87
2023/03/26 12:44:50;;;;;;;;;;;11.30;99.90;;;;;;5094775;28;19913;-88
2023/03/26 12:47:21;;;;;;;;;;;11.00;99.90;;;;;;5091844;28;19912;-88
2023/03/26 12:49:47;;;;;;;;;;;11.00;99.90;;;;;;5091233;28;19908;-87
2023/03/26 12:52:13;;;;;;;;;;;11.00;99.90;;;;;;5106277;28;20314;-87
2023/03/26 12:54:44;;;;;;;;;;;11.30;99.90;;;;;;5073648;28;19912;-88
2023/03/26 12:57:21;;;;;;;;;;;11.40;99.90;;;;;;5073612;28;20371;-90
2023/03/26 12:59:47;;;;;;;;;;;11.50;99.90;;;;;;5103729;28;19919;-88
2023/03/26 13:02:31;;;;;;;;;;;11.50;99.90;;;;;;5091288;28;19908;-88
2023/03/26 13:05:00;;;;;;;;;;;11.40;99.90;;;;;;5091046;28;20400;-89
2023/03/26 13:07:38;;;;;;;;;;;11.30;99.90;;;;;;5090937;28;19912;-90
2023/03/26 13:10:23;;;;;;;;;;;12.10;99.90;;;;;;5091817;28;19908;-89
2023/03/26 13:13:09;;;;;;;;;;;11.40;99.90;;;;;;5105373;28;19924;-87
2023/03/26 13:15:35;;;;;;;;;;;11.50;99.90;;;;;;5087376;28;20436;-87
2023/03/26 13:18:08;;;;;;;;;;;11.50;99.90;;;;;;5107417;27;19920;-87
2023/03/26 13:20:46;;;;;;;;;;;11.40;99.90;;;;;;5071156;28;19920;-85
2023/03/26 13:23:12;;;;;;;;;;;11.00;99.90;;;;;;5090125;28;19957;-88
2023/03/26 13:25:53;;;;;;;;;;;10.70;99.90;;;;;;5072677;28;19916;-87
2023/03/26 13:28:35;;;;;;;;;;;10.60;99.90;;;;;;5089849;28;20375;-87
2023/03/26 13:31:04;;;;;;;;;;;10.60;99.90;;;;;;5104928;28;19916;-87
2023/03/26 13:33:30;;;;;;;;;;;10.60;99.90;;;;;;5089944;28;19920;-88
2023/03/26 13:35:58;;;;;;;;;;;10.60;99.90;;;;;;5089687;28;19936;-86
2023/03/26 13:38:27;;;;;;;;;;;10.60;99.90;;;;;;5070458;28;20406;-86
2023/03/26 13:40:52;;;;;;;;;;;10.70;99.90;;;;;;5089605;28;19912;-87
2023/03/26 13:43:27;;;;;;;;;;;10.80;99.90;;;;;;5072083;28;20287;-86
2023/03/26 13:46:11;;;;;;;;;;;10.80;99.90;;;;;;5070696;28;19919;-86
2023/03/26 13:48:40;;;;;;;;;;;10.70;99.90;;;;;;5090492;28;19916;-87
2023/03/26 13:51:22;;;;;;;;;;;10.70;99.90;;;;;;5073187;28;19908;-86
2023/03/26 13:53:56;;;;;;;;;;;10.70;99.90;;;;;;5053139;28;20372;-87
2023/03/26 13:56:25;;;;;;;;;;;10.80;99.90;;;;;;5105659;28;19916;-87
2023/03/26 13:59:00;;;;;;;;;;;10.80;99.90;;;;;;5105144;28;19912;-87
2023/03/26 14:01:33;;;;;;;;;;;11.00;99.90;;;;;;5068951;28;20313;-87
2023/03/26 14:04:10;;;;;;;;;;;11.10;99.90;;;;;;5104530;28;19912;-87
2023/03/26 14:06:40;;;;;;;;;;;11.30;99.90;;;;;;5103633;28;19959;-87
2023/03/26 14:09:11;;;;;;;;;;;11.50;99.90;;;;;;5090004;28;21318;-88
2023/03/26 14:11:36;;;;;;;;;;;11.50;99.90;;;;;;5089848;28;19913;-87
2023/03/26 14:14:10;;;;;;;;;;;11.60;99.90;;;;;;5070783;28;19927;-87
2023/03/26 14:16:43;;;;;;;;;;;11.50;99.90;;;;;;5086471;28;19912;-86
2023/03/26 14:19:26;;;;;;;;;;;11.60;99.90;;;;;;5089391;28;20349;-87
2023/03/26 14:22:10;;;;;;;;;;;11.40;99.90;;;;;;5073719;28;19933;-86
2023/03/26 14:24:54;;;;;;;;;;;11.30;99.90;;;;;;5070998;28;19919;-86
2023/03/26 14:27:31;;;;;;;;;;;11.10;99.90;;;;;;5087691;28;20048;-86
2023/03/26 14:30:15;;;;;;;;;;;11.20;99.90;;;;;;5085071;28;20006;-88
2023/03/26 14:32:51;;;;;;;;;;;11.60;99.90;;;;;;5088554;28;19920;-85
2023/03/26 14:35:24;;;;;;;;;;;11.90;99.90;;;;;;5089636;28;19908;-86
2023/03/26 14:38:02;;;;;;;;;;;12.10;99.90;;;;;;5088691;28;20407;-88
2023/03/26 14:40:29;;;;;;;;;;;12.20;99.90;;;;;;5104939;28;20010;-88
2023/03/26 14:43:11;;;;;;;;;;;11.90;99.90;;;;;;5089393;28;20391;-89
2023/03/26 14:45:42;;;;;;;;;;;11.50;99.90;;;;;;5090141;28;19908;-87